AEA77G EDDB-LEMD
Flight info
| Callsign | AEA77G |
|---|---|
| Flight time | N/A |
| Altitude | 36000 |
| Route | KISUC1N KISUC Z20 MAG Z92 ABGUS DCT LENDO DCT RASCA DCT FAMEN/N0448F370 DCT AHVEC UN857 DISAK DCT ARKIP DCT ARNAV DCT LMG DCT UVELI DCT OSMOB DCT ARVID T424 PPN N10 BANEV |
| Aircraft | B38M/M-SDE1FGHILORVWXY/HB1 |
Departure
| Time | 2026-05-01 13:09 |
|---|---|
| Airport | Berlin Brandenburg Airport (EDDB) |
Arrival
| Time | N/A |
|---|---|
| Airport | Adolfo Suárez Madrid–Barajas Airport (LEMD) |
| Time | Latitude | Longitude | Altitude | Speed | Heading |
|---|---|---|---|---|---|
| 2026-05-01 12:53 | 52.36150 | 13.51419 | 157 ft | 0 kts | 339° |
| 2026-05-01 12:58 | 52.36134 | 13.51428 | 184 ft | 2 kts | 344° |
| 2026-05-01 12:58 | 52.36118 | 13.51434 | 153 ft | 2 kts | 351° |
| 2026-05-01 12:59 | 52.36086 | 13.51434 | 157 ft | 2 kts | 14° |
| 2026-05-01 12:59 | 52.36071 | 13.51424 | 157 ft | 2 kts | 34° |
| 2026-05-01 12:59 | 52.36052 | 13.51385 | 157 ft | 1 kts | 67° |
| 2026-05-01 13:00 | 52.36053 | 13.51390 | 157 ft | 2 kts | 68° |
| 2026-05-01 13:00 | 52.36059 | 13.51416 | 157 ft | 3 kts | 68° |
| 2026-05-01 13:01 | 52.36075 | 13.51480 | 157 ft | 0 kts | 68° |
| 2026-05-01 13:07 | 52.36000 | 13.52339 | 157 ft | 8 kts | 167° |
| 2026-05-01 13:07 | 52.35933 | 13.52321 | 157 ft | 11 kts | 207° |
| 2026-05-01 13:07 | 52.35860 | 13.52267 | 157 ft | 12 kts | 201° |
| 2026-05-01 13:08 | 52.35817 | 13.52206 | 157 ft | 0 kts | 247° |
| 2026-05-01 13:08 | 52.35750 | 13.51929 | 157 ft | 65 kts | 249° |
| 2026-05-01 13:08 | 52.35492 | 13.50838 | 157 ft | 138 kts | 249° |
| 2026-05-01 13:09 | 52.35076 | 13.49057 | 261 ft | 189 kts | 250° |
| 2026-05-01 13:09 | 52.34568 | 13.46914 | 850 ft | 209 kts | 245° |
| 2026-05-01 13:09 | 52.33770 | 13.45050 | 2112 ft | 197 kts | 231° |
| 2026-05-01 13:09 | 52.32870 | 13.43267 | 2679 ft | 217 kts | 231° |
| 2026-05-01 13:10 | 52.31867 | 13.41293 | 3228 ft | 233 kts | 230° |
| 2026-05-01 13:10 | 52.30812 | 13.39255 | 4099 ft | 235 kts | 229° |
| 2026-05-01 13:10 | 52.29744 | 13.37222 | 5049 ft | 238 kts | 228° |
| 2026-05-01 13:10 | 52.28636 | 13.35135 | 5862 ft | 245 kts | 227° |
| 2026-05-01 13:11 | 52.27510 | 13.33026 | 6705 ft | 250 kts | 227° |
| 2026-05-01 13:11 | 52.26349 | 13.30861 | 7491 ft | 254 kts | 227° |
| 2026-05-01 13:11 | 52.25174 | 13.28678 | 8304 ft | 258 kts | 227° |
| 2026-05-01 13:11 | 52.24133 | 13.26210 | 8850 ft | 275 kts | 245° |
| 2026-05-01 13:12 | 52.23389 | 13.23225 | 9333 ft | 293 kts | 247° |
| 2026-05-01 13:12 | 52.22595 | 13.20078 | 9958 ft | 304 kts | 247° |
| 2026-05-01 13:12 | 52.21789 | 13.16885 | 10772 ft | 306 kts | 247° |
| 2026-05-01 13:12 | 52.21249 | 13.14743 | 11238 ft | 310 kts | 247° |
| 2026-05-01 13:13 | 52.20421 | 13.11465 | 11963 ft | 315 kts | 247° |
| 2026-05-01 13:13 | 52.19582 | 13.08150 | 12695 ft | 319 kts | 247° |
| 2026-05-01 13:13 | 52.18730 | 13.04784 | 13395 ft | 323 kts | 247° |
| 2026-05-01 13:13 | 52.17581 | 13.00252 | 14301 ft | 330 kts | 246° |
| 2026-05-01 13:14 | 52.16698 | 12.96777 | 14953 ft | 333 kts | 247° |
| 2026-05-01 13:14 | 52.16183 | 12.94350 | 15221 ft | 342 kts | 257° |
| 2026-05-01 13:14 | 52.15692 | 12.90454 | 15412 ft | 360 kts | 258° |
| 2026-05-01 13:14 | 52.15156 | 12.86429 | 15707 ft | 374 kts | 257° |
| 2026-05-01 13:15 | 52.14573 | 12.82259 | 16281 ft | 378 kts | 257° |
| 2026-05-01 13:15 | 52.13974 | 12.78083 | 16914 ft | 381 kts | 257° |
| 2026-05-01 13:15 | 52.13360 | 12.73877 | 17528 ft | 384 kts | 257° |
| 2026-05-01 13:15 | 52.12736 | 12.69633 | 18132 ft | 387 kts | 257° |
| 2026-05-01 13:16 | 52.12120 | 12.65357 | 18713 ft | 390 kts | 258° |
| 2026-05-01 13:16 | 52.11505 | 12.61044 | 19218 ft | 392 kts | 257° |
| 2026-05-01 13:16 | 52.10884 | 12.56712 | 19717 ft | 395 kts | 257° |
| 2026-05-01 13:17 | 52.08980 | 12.43514 | 21171 ft | 404 kts | 257° |
| 2026-05-01 13:17 | 52.08332 | 12.39046 | 21646 ft | 407 kts | 257° |
| 2026-05-01 13:18 | 52.07018 | 12.30035 | 22636 ft | 410 kts | 257° |
| 2026-05-01 13:18 | 52.06357 | 12.25516 | 23097 ft | 413 kts | 257° |
| 2026-05-01 13:18 | 52.05688 | 12.20962 | 23550 ft | 416 kts | 257° |
| 2026-05-01 13:18 | 52.05012 | 12.16375 | 23978 ft | 418 kts | 257° |
| 2026-05-01 13:19 | 52.04330 | 12.11757 | 24356 ft | 421 kts | 257° |
| 2026-05-01 13:19 | 52.03646 | 12.07134 | 24751 ft | 422 kts | 257° |
| 2026-05-01 13:19 | 52.02260 | 11.97821 | 25498 ft | 426 kts | 257° |
| 2026-05-01 13:20 | 52.01559 | 11.93134 | 25863 ft | 428 kts | 257° |
| 2026-05-01 13:20 | 52.00854 | 11.88426 | 26225 ft | 430 kts | 257° |
| 2026-05-01 13:20 | 52.00144 | 11.83706 | 26577 ft | 432 kts | 257° |
| 2026-05-01 13:21 | 51.98594 | 11.74260 | 27321 ft | 434 kts | 255° |
| 2026-05-01 13:21 | 51.97790 | 11.69534 | 27646 ft | 436 kts | 255° |
| 2026-05-01 13:21 | 51.96989 | 11.64824 | 27979 ft | 438 kts | 255° |
| 2026-05-01 13:21 | 51.96179 | 11.60061 | 28300 ft | 440 kts | 255° |
| 2026-05-01 13:22 | 51.95360 | 11.55260 | 28634 ft | 442 kts | 255° |
| 2026-05-01 13:22 | 51.94538 | 11.50454 | 28942 ft | 444 kts | 255° |
| 2026-05-01 13:22 | 51.93717 | 11.45667 | 29251 ft | 445 kts | 255° |
| 2026-05-01 13:22 | 51.92883 | 11.40814 | 29563 ft | 447 kts | 255° |
| 2026-05-01 13:23 | 51.92045 | 11.35956 | 29857 ft | 449 kts | 255° |
| 2026-05-01 13:23 | 51.91200 | 11.31067 | 30153 ft | 451 kts | 255° |
| 2026-05-01 13:23 | 51.90353 | 11.26175 | 30429 ft | 453 kts | 254° |
| 2026-05-01 13:23 | 51.89494 | 11.21247 | 30613 ft | 455 kts | 254° |
| 2026-05-01 13:24 | 51.88632 | 11.16316 | 30911 ft | 455 kts | 254° |
| 2026-05-01 13:24 | 51.87766 | 11.11370 | 31114 ft | 458 kts | 254° |
| 2026-05-01 13:24 | 51.86885 | 11.06408 | 31317 ft | 460 kts | 252° |
| 2026-05-01 13:25 | 51.84575 | 10.96739 | 31822 ft | 462 kts | 249° |
| 2026-05-01 13:25 | 51.83419 | 10.91870 | 31980 ft | 465 kts | 249° |
| 2026-05-01 13:25 | 51.82274 | 10.87008 | 32375 ft | 462 kts | 249° |
| 2026-05-01 13:25 | 51.81134 | 10.82167 | 32711 ft | 461 kts | 249° |
| 2026-05-01 13:26 | 51.80006 | 10.77379 | 32975 ft | 461 kts | 249° |
| 2026-05-01 13:26 | 51.78864 | 10.72547 | 33321 ft | 459 kts | 249° |
| 2026-05-01 13:26 | 51.77716 | 10.67698 | 33814 ft | 454 kts | 249° |
| 2026-05-01 13:26 | 51.76593 | 10.62962 | 34231 ft | 450 kts | 249° |
| 2026-05-01 13:27 | 51.75473 | 10.58255 | 34528 ft | 449 kts | 249° |
| 2026-05-01 13:27 | 51.74368 | 10.53613 | 34777 ft | 448 kts | 249° |
| 2026-05-01 13:27 | 51.72125 | 10.44232 | 35215 ft | 447 kts | 249° |
| 2026-05-01 13:28 | 51.69883 | 10.34894 | 35630 ft | 447 kts | 249° |
| 2026-05-01 13:28 | 51.68759 | 10.30226 | 35830 ft | 446 kts | 249° |
| 2026-05-01 13:29 | 51.66496 | 10.20858 | 36206 ft | 445 kts | 250° |
| 2026-05-01 13:29 | 51.64254 | 10.11621 | 36375 ft | 446 kts | 249° |
| 2026-05-01 13:31 | 51.57459 | 9.83854 | 36358 ft | 444 kts | 249° |
| 2026-05-01 13:32 | 51.51747 | 9.60781 | 36365 ft | 444 kts | 249° |
| 2026-05-01 13:33 | 51.46017 | 9.37874 | 36344 ft | 443 kts | 249° |
| 2026-05-01 13:34 | 51.41392 | 9.19556 | 36331 ft | 443 kts | 249° |
| 2026-05-01 13:35 | 51.37903 | 9.05833 | 36333 ft | 443 kts | 249° |
| 2026-05-01 13:36 | 51.34399 | 8.92137 | 36326 ft | 443 kts | 249° |
| 2026-05-01 13:36 | 51.30876 | 8.78446 | 36327 ft | 443 kts | 248° |
| 2026-05-01 13:37 | 51.28519 | 8.69339 | 36325 ft | 443 kts | 249° |
| 2026-05-01 13:37 | 51.26171 | 8.60298 | 36322 ft | 443 kts | 249° |
| 2026-05-01 13:38 | 51.22626 | 8.46716 | 36320 ft | 441 kts | 249° |
| 2026-05-01 13:39 | 51.20258 | 8.37685 | 36313 ft | 441 kts | 248° |
| 2026-05-01 13:39 | 51.17880 | 8.28660 | 36323 ft | 441 kts | 249° |
| 2026-05-01 13:40 | 51.15500 | 8.19662 | 36314 ft | 441 kts | 248° |
| 2026-05-01 13:40 | 51.13108 | 8.10647 | 36315 ft | 441 kts | 249° |
| 2026-05-01 13:41 | 51.10717 | 8.01677 | 36316 ft | 439 kts | 248° |
| 2026-05-01 13:41 | 51.08351 | 7.92830 | 36305 ft | 436 kts | 249° |
| 2026-05-01 13:42 | 51.05964 | 7.83943 | 36314 ft | 438 kts | 248° |
| 2026-05-01 13:42 | 51.03570 | 7.75063 | 36306 ft | 437 kts | 248° |
| 2026-05-01 13:43 | 51.01168 | 7.66188 | 36307 ft | 436 kts | 248° |
| 2026-05-01 13:43 | 50.98765 | 7.57344 | 36313 ft | 437 kts | 247° |
| 2026-05-01 13:44 | 50.96353 | 7.48497 | 36290 ft | 436 kts | 248° |
| 2026-05-01 13:44 | 50.93947 | 7.39710 | 36300 ft | 437 kts | 247° |
| 2026-05-01 13:45 | 50.91524 | 7.30892 | 36289 ft | 437 kts | 247° |
| 2026-05-01 13:45 | 50.89092 | 7.22075 | 36288 ft | 436 kts | 247° |
| 2026-05-01 13:46 | 50.86652 | 7.13259 | 36297 ft | 437 kts | 248° |
| 2026-05-01 13:46 | 50.84212 | 7.04480 | 36286 ft | 436 kts | 246° |
| 2026-05-01 13:47 | 50.81764 | 6.95702 | 36293 ft | 436 kts | 247° |
| 2026-05-01 13:47 | 50.79310 | 6.86942 | 36266 ft | 436 kts | 247° |
| 2026-05-01 13:48 | 50.76850 | 6.78187 | 36257 ft | 435 kts | 246° |
| 2026-05-01 13:48 | 50.74384 | 6.69439 | 36270 ft | 436 kts | 246° |
| 2026-05-01 13:49 | 50.71918 | 6.60717 | 36264 ft | 436 kts | 246° |
| 2026-05-01 13:49 | 50.69438 | 6.51979 | 36254 ft | 435 kts | 246° |
| 2026-05-01 13:50 | 50.66965 | 6.43294 | 36261 ft | 434 kts | 246° |
| 2026-05-01 13:50 | 50.64505 | 6.34684 | 36242 ft | 433 kts | 245° |
| 2026-05-01 13:51 | 50.61902 | 6.26098 | 36252 ft | 433 kts | 242° |
| 2026-05-01 13:51 | 50.59057 | 6.17742 | 36245 ft | 435 kts | 242° |
| 2026-05-01 13:52 | 50.56236 | 6.09345 | 36241 ft | 433 kts | 242° |
| 2026-05-01 13:52 | 50.53418 | 6.00960 | 36256 ft | 434 kts | 241° |
| 2026-05-01 13:53 | 50.50591 | 5.92576 | 36251 ft | 434 kts | 242° |
| 2026-05-01 13:53 | 50.46342 | 5.80024 | 36246 ft | 435 kts | 241° |
| 2026-05-01 13:54 | 50.43492 | 5.71645 | 36253 ft | 435 kts | 241° |
| 2026-05-01 13:54 | 50.40642 | 5.63289 | 36253 ft | 436 kts | 241° |
| 2026-05-01 13:55 | 50.37782 | 5.54931 | 36244 ft | 434 kts | 241° |
| 2026-05-01 13:55 | 50.34908 | 5.46563 | 36252 ft | 436 kts | 240° |
| 2026-05-01 13:56 | 50.32029 | 5.38207 | 36256 ft | 436 kts | 241° |
| 2026-05-01 13:56 | 50.29167 | 5.29928 | 36248 ft | 436 kts | 240° |
| 2026-05-01 13:57 | 50.26743 | 5.22934 | 36257 ft | 438 kts | 240° |
| 2026-05-01 13:57 | 50.23363 | 5.13214 | 36252 ft | 437 kts | 240° |
| 2026-05-01 13:58 | 50.20450 | 5.04871 | 36256 ft | 437 kts | 239° |
| 2026-05-01 13:58 | 50.17531 | 4.96533 | 36254 ft | 439 kts | 240° |
| 2026-05-01 13:59 | 50.15094 | 4.89599 | 36251 ft | 438 kts | 238° |
| 2026-05-01 13:59 | 50.13308 | 4.85783 | 36248 ft | 434 kts | 227° |
| 2026-05-01 13:59 | 50.11348 | 4.82201 | 36242 ft | 437 kts | 229° |
| 2026-05-01 14:00 | 50.07450 | 4.74956 | 36252 ft | 437 kts | 228° |
| 2026-05-01 14:00 | 50.03533 | 4.67738 | 36248 ft | 436 kts | 228° |
| 2026-05-01 14:01 | 49.99606 | 4.60526 | 36247 ft | 436 kts | 228° |
| 2026-05-01 14:01 | 49.95522 | 4.53572 | 36270 ft | 435 kts | 224° |
| 2026-05-01 14:02 | 49.91339 | 4.46783 | 36238 ft | 435 kts | 224° |
| 2026-05-01 14:02 | 49.87165 | 4.39983 | 36250 ft | 435 kts | 224° |
| 2026-05-01 14:03 | 49.82993 | 4.33199 | 36241 ft | 435 kts | 224° |
| 2026-05-01 14:03 | 49.78815 | 4.26422 | 36236 ft | 435 kts | 224° |
| 2026-05-01 14:04 | 49.74635 | 4.19660 | 36242 ft | 435 kts | 224° |
| 2026-05-01 14:04 | 49.70478 | 4.12956 | 36230 ft | 435 kts | 224° |
| 2026-05-01 14:05 | 49.66286 | 4.06212 | 36240 ft | 435 kts | 224° |
| 2026-05-01 14:05 | 49.62100 | 3.99494 | 36229 ft | 434 kts | 224° |
| 2026-05-01 14:06 | 49.57911 | 3.92790 | 36226 ft | 434 kts | 224° |
| 2026-05-01 14:06 | 49.53717 | 3.86096 | 36222 ft | 434 kts | 223° |
| 2026-05-01 14:07 | 49.49522 | 3.79417 | 36225 ft | 434 kts | 223° |
| 2026-05-01 14:08 | 49.43223 | 3.69423 | 36215 ft | 434 kts | 223° |
| 2026-05-01 14:08 | 49.39043 | 3.62812 | 36208 ft | 434 kts | 223° |
| 2026-05-01 14:09 | 49.34834 | 3.56172 | 36217 ft | 434 kts | 223° |
| 2026-05-01 14:09 | 49.30621 | 3.49544 | 36204 ft | 435 kts | 223° |
| 2026-05-01 14:10 | 49.26393 | 3.42909 | 36209 ft | 435 kts | 223° |
| 2026-05-01 14:10 | 49.22167 | 3.36295 | 36208 ft | 435 kts | 223° |
| 2026-05-01 14:11 | 49.17939 | 3.29695 | 36198 ft | 434 kts | 223° |
| 2026-05-01 14:11 | 49.11585 | 3.19807 | 36189 ft | 434 kts | 223° |
| 2026-05-01 14:12 | 49.07349 | 3.13237 | 36194 ft | 434 kts | 222° |
| 2026-05-01 14:12 | 49.03108 | 3.06678 | 36218 ft | 434 kts | 222° |
| 2026-05-01 14:13 | 48.99580 | 3.01232 | 36207 ft | 434 kts | 222° |
| 2026-05-01 14:13 | 48.94619 | 2.93595 | 36204 ft | 434 kts | 222° |
| 2026-05-01 14:14 | 48.90393 | 2.87105 | 36204 ft | 434 kts | 222° |
| 2026-05-01 14:14 | 48.86146 | 2.80597 | 36210 ft | 434 kts | 222° |
| 2026-05-01 14:15 | 48.81953 | 2.73993 | 36195 ft | 436 kts | 230° |
| 2026-05-01 14:15 | 48.78506 | 2.66397 | 36193 ft | 438 kts | 232° |
| 2026-05-01 14:16 | 48.75039 | 2.58809 | 36213 ft | 439 kts | 232° |
| 2026-05-01 14:16 | 48.71562 | 2.51188 | 36217 ft | 439 kts | 232° |
| 2026-05-01 14:17 | 48.68087 | 2.43592 | 36208 ft | 439 kts | 232° |
| 2026-05-01 14:17 | 48.64604 | 2.35999 | 36216 ft | 439 kts | 232° |
| 2026-05-01 14:18 | 48.61118 | 2.28419 | 36211 ft | 439 kts | 232° |
| 2026-05-01 14:18 | 48.58112 | 2.22458 | 36189 ft | 433 kts | 219° |
| 2026-05-01 14:19 | 48.54783 | 2.19243 | 36219 ft | 424 kts | 198° |
| 2026-05-01 14:19 | 48.51954 | 2.17953 | 36210 ft | 425 kts | 193° |
| 2026-05-01 14:19 | 48.46229 | 2.15835 | 36204 ft | 426 kts | 191° |
| 2026-05-01 14:20 | 48.37464 | 2.12934 | 36207 ft | 431 kts | 192° |
| 2026-05-01 14:21 | 48.31628 | 2.11057 | 36214 ft | 431 kts | 191° |
| 2026-05-01 14:21 | 48.28672 | 2.10349 | 36182 ft | 430 kts | 180° |
| 2026-05-01 14:21 | 48.25705 | 2.10722 | 36222 ft | 428 kts | 173° |
| 2026-05-01 14:22 | 48.16790 | 2.12450 | 36201 ft | 434 kts | 173° |
| 2026-05-01 14:22 | 48.10785 | 2.12580 | 36228 ft | 431 kts | 188° |
| 2026-05-01 14:23 | 48.04800 | 2.11506 | 36199 ft | 434 kts | 187° |
| 2026-05-01 14:23 | 47.98800 | 2.10377 | 36212 ft | 434 kts | 188° |
| 2026-05-01 14:24 | 47.92791 | 2.09229 | 36214 ft | 436 kts | 188° |
| 2026-05-01 14:24 | 47.86780 | 2.08084 | 36212 ft | 436 kts | 188° |
| 2026-05-01 14:25 | 47.80766 | 2.06940 | 36193 ft | 436 kts | 188° |
| 2026-05-01 14:25 | 47.74750 | 2.05798 | 36188 ft | 437 kts | 189° |
| 2026-05-01 14:26 | 47.65690 | 2.04084 | 36192 ft | 438 kts | 189° |
| 2026-05-01 14:26 | 47.62753 | 2.03218 | 36170 ft | 433 kts | 202° |
| 2026-05-01 14:27 | 47.59922 | 2.01552 | 36210 ft | 433 kts | 202° |
| 2026-05-01 14:27 | 47.54313 | 1.98385 | 36185 ft | 434 kts | 204° |
| 2026-05-01 14:28 | 47.45875 | 1.93516 | 36187 ft | 434 kts | 204° |
| 2026-05-01 14:28 | 47.40249 | 1.90270 | 36202 ft | 434 kts | 204° |
| 2026-05-01 14:29 | 47.34620 | 1.87029 | 36189 ft | 433 kts | 204° |
| 2026-05-01 14:30 | 47.23431 | 1.80608 | 36204 ft | 432 kts | 204° |
| 2026-05-01 14:31 | 47.15008 | 1.75842 | 36188 ft | 432 kts | 204° |
| 2026-05-01 14:31 | 47.09399 | 1.72683 | 36193 ft | 431 kts | 204° |
| 2026-05-01 14:32 | 47.03799 | 1.69535 | 36208 ft | 432 kts | 204° |
| 2026-05-01 14:32 | 46.98188 | 1.66388 | 36213 ft | 431 kts | 204° |
| 2026-05-01 14:33 | 46.92582 | 1.63252 | 36206 ft | 431 kts | 203° |
| 2026-05-01 14:33 | 46.86968 | 1.60117 | 36211 ft | 431 kts | 203° |
| 2026-05-01 14:34 | 46.81397 | 1.57014 | 36215 ft | 431 kts | 203° |
| 2026-05-01 14:34 | 46.75787 | 1.53895 | 36206 ft | 431 kts | 203° |
| 2026-05-01 14:35 | 46.70169 | 1.50781 | 36209 ft | 431 kts | 203° |
| 2026-05-01 14:35 | 46.64563 | 1.47679 | 36208 ft | 431 kts | 203° |
| 2026-05-01 14:36 | 46.58949 | 1.44580 | 36206 ft | 431 kts | 203° |
| 2026-05-01 14:36 | 46.53346 | 1.41491 | 36207 ft | 430 kts | 203° |
| 2026-05-01 14:37 | 46.47745 | 1.38414 | 36210 ft | 430 kts | 203° |
| 2026-05-01 14:37 | 46.42147 | 1.35344 | 36213 ft | 430 kts | 203° |
| 2026-05-01 14:38 | 46.36546 | 1.32279 | 36219 ft | 430 kts | 202° |
| 2026-05-01 14:38 | 46.33738 | 1.30745 | 36320 ft | 431 kts | 202° |
| 2026-05-01 14:38 | 46.30940 | 1.29218 | 36569 ft | 430 kts | 202° |
| 2026-05-01 14:38 | 46.28133 | 1.27688 | 36753 ft | 430 kts | 202° |
| 2026-05-01 14:39 | 46.25341 | 1.26167 | 36950 ft | 429 kts | 202° |
| 2026-05-01 14:39 | 46.22547 | 1.24647 | 37139 ft | 428 kts | 202° |
| 2026-05-01 14:39 | 46.19793 | 1.23151 | 37239 ft | 429 kts | 202° |
| 2026-05-01 14:40 | 46.14217 | 1.20126 | 37210 ft | 427 kts | 202° |
| 2026-05-01 14:40 | 46.08645 | 1.17110 | 37220 ft | 427 kts | 202° |
| 2026-05-01 14:41 | 46.03074 | 1.14101 | 37212 ft | 427 kts | 202° |
| 2026-05-01 14:41 | 45.97505 | 1.11100 | 37213 ft | 427 kts | 202° |
| 2026-05-01 14:42 | 45.91937 | 1.08104 | 37206 ft | 428 kts | 201° |
| 2026-05-01 14:42 | 45.86364 | 1.05111 | 37216 ft | 428 kts | 201° |
| 2026-05-01 14:43 | 45.80986 | 1.01583 | 37186 ft | 423 kts | 219° |
| 2026-05-01 14:43 | 45.76411 | 0.96251 | 37188 ft | 425 kts | 219° |
| 2026-05-01 14:44 | 45.71838 | 0.90853 | 37211 ft | 426 kts | 219° |
| 2026-05-01 14:44 | 45.65206 | 0.84741 | 37197 ft | 427 kts | 213° |
| 2026-05-01 14:45 | 45.56915 | 0.77106 | 37200 ft | 427 kts | 213° |
| 2026-05-01 14:46 | 45.52733 | 0.73245 | 37194 ft | 428 kts | 213° |
| 2026-05-01 14:46 | 45.45238 | 0.66340 | 37192 ft | 427 kts | 213° |
| 2026-05-01 14:47 | 45.40274 | 0.61779 | 37185 ft | 428 kts | 213° |
| 2026-05-01 14:48 | 45.32769 | 0.54902 | 37182 ft | 428 kts | 213° |
| 2026-05-01 14:48 | 45.25254 | 0.48037 | 37185 ft | 428 kts | 213° |
| 2026-05-01 14:49 | 45.15214 | 0.38901 | 37174 ft | 429 kts | 213° |
| 2026-05-01 14:50 | 45.05172 | 0.29802 | 37182 ft | 430 kts | 213° |
| 2026-05-01 14:51 | 44.97620 | 0.22983 | 37170 ft | 429 kts | 213° |
| 2026-05-01 14:52 | 44.90055 | 0.16175 | 37181 ft | 430 kts | 213° |
| 2026-05-01 14:53 | 44.82492 | 0.09391 | 37181 ft | 430 kts | 213° |
| 2026-05-01 14:53 | 44.77439 | 0.04870 | 37178 ft | 430 kts | 213° |
| 2026-05-01 14:54 | 44.72386 | 0.00358 | 37172 ft | 430 kts | 213° |
| 2026-05-01 14:54 | 44.67330 | -0.04146 | 37185 ft | 431 kts | 213° |
| 2026-05-01 14:55 | 44.62268 | -0.08647 | 37180 ft | 431 kts | 213° |
| 2026-05-01 14:55 | 44.57197 | -0.13147 | 37178 ft | 431 kts | 213° |
| 2026-05-01 14:56 | 44.52127 | -0.17635 | 37185 ft | 430 kts | 213° |
| 2026-05-01 14:56 | 44.47062 | -0.22111 | 37188 ft | 431 kts | 213° |
| 2026-05-01 14:57 | 44.42024 | -0.26553 | 37168 ft | 431 kts | 213° |
| 2026-05-01 14:57 | 44.34407 | -0.33251 | 37182 ft | 430 kts | 213° |
| 2026-05-01 14:58 | 44.29335 | -0.37701 | 37176 ft | 430 kts | 213° |
| 2026-05-01 14:58 | 44.24255 | -0.42148 | 37180 ft | 430 kts | 213° |
| 2026-05-01 14:59 | 44.19188 | -0.46574 | 37166 ft | 430 kts | 213° |
| 2026-05-01 14:59 | 44.14113 | -0.50998 | 37161 ft | 430 kts | 213° |
| 2026-05-01 15:00 | 44.06531 | -0.57590 | 37167 ft | 430 kts | 213° |
| 2026-05-01 15:01 | 44.01457 | -0.61992 | 37157 ft | 430 kts | 213° |
| 2026-05-01 15:01 | 43.96378 | -0.66387 | 37168 ft | 430 kts | 213° |
| 2026-05-01 15:02 | 43.91296 | -0.70777 | 37162 ft | 430 kts | 213° |
| 2026-05-01 15:02 | 43.86221 | -0.75152 | 37172 ft | 430 kts | 213° |
| 2026-05-01 15:03 | 43.81136 | -0.79527 | 37131 ft | 430 kts | 213° |
| 2026-05-01 15:03 | 43.76048 | -0.83895 | 37170 ft | 431 kts | 213° |
| 2026-05-01 15:04 | 43.70950 | -0.88262 | 37165 ft | 430 kts | 213° |
| 2026-05-01 15:04 | 43.65856 | -0.92618 | 37154 ft | 430 kts | 213° |
| 2026-05-01 15:05 | 43.60764 | -0.96963 | 37156 ft | 431 kts | 213° |
| 2026-05-01 15:05 | 43.55695 | -1.01279 | 37146 ft | 431 kts | 213° |
| 2026-05-01 15:06 | 43.50590 | -1.05619 | 37150 ft | 431 kts | 213° |
| 2026-05-01 15:06 | 43.45485 | -1.09948 | 37147 ft | 431 kts | 213° |
| 2026-05-01 15:07 | 43.40378 | -1.14271 | 37129 ft | 431 kts | 213° |
| 2026-05-01 15:07 | 43.35255 | -1.18599 | 37140 ft | 433 kts | 213° |
| 2026-05-01 15:08 | 43.30112 | -1.22936 | 37127 ft | 433 kts | 213° |
| 2026-05-01 15:08 | 43.24975 | -1.27258 | 37137 ft | 434 kts | 213° |
| 2026-05-01 15:09 | 43.19828 | -1.31580 | 37129 ft | 433 kts | 213° |
| 2026-05-01 15:09 | 43.14682 | -1.35892 | 37142 ft | 434 kts | 213° |
| 2026-05-01 15:10 | 43.09530 | -1.40201 | 37128 ft | 433 kts | 213° |
| 2026-05-01 15:10 | 43.01804 | -1.46647 | 37136 ft | 434 kts | 213° |
| 2026-05-01 15:11 | 42.94074 | -1.53077 | 37110 ft | 434 kts | 214° |
| 2026-05-01 15:12 | 42.88896 | -1.57373 | 37159 ft | 436 kts | 213° |
| 2026-05-01 15:12 | 42.81123 | -1.63806 | 37153 ft | 436 kts | 213° |
| 2026-05-01 15:14 | 42.67879 | -1.73768 | 37148 ft | 438 kts | 208° |
| 2026-05-01 15:14 | 42.59708 | -1.79294 | 37133 ft | 437 kts | 209° |
| 2026-05-01 15:15 | 42.48824 | -1.86660 | 37129 ft | 437 kts | 209° |
| 2026-05-01 15:16 | 42.37943 | -1.93954 | 37114 ft | 433 kts | 208° |
| 2026-05-01 15:18 | 42.24504 | -2.02888 | 37125 ft | 431 kts | 208° |
| 2026-05-01 15:19 | 42.13728 | -2.10012 | 37135 ft | 431 kts | 208° |
| 2026-05-01 15:19 | 42.05636 | -2.15347 | 37137 ft | 431 kts | 208° |
| 2026-05-01 15:20 | 41.97545 | -2.20666 | 37140 ft | 431 kts | 208° |
| 2026-05-01 15:21 | 41.92172 | -2.24190 | 37008 ft | 422 kts | 208° |
| 2026-05-01 15:21 | 41.89551 | -2.25907 | 36567 ft | 418 kts | 208° |
| 2026-05-01 15:21 | 41.86945 | -2.27612 | 36069 ft | 415 kts | 208° |
| 2026-05-01 15:21 | 41.84357 | -2.29304 | 35572 ft | 412 kts | 208° |
| 2026-05-01 15:22 | 41.79271 | -2.32624 | 34632 ft | 406 kts | 208° |
| 2026-05-01 15:22 | 41.76736 | -2.34278 | 34155 ft | 404 kts | 208° |
| 2026-05-01 15:22 | 41.74207 | -2.35925 | 33621 ft | 402 kts | 208° |
| 2026-05-01 15:23 | 41.71702 | -2.37556 | 33137 ft | 399 kts | 208° |
| 2026-05-01 15:23 | 41.69210 | -2.39176 | 32669 ft | 396 kts | 208° |
| 2026-05-01 15:23 | 41.66742 | -2.40780 | 32225 ft | 393 kts | 208° |
| 2026-05-01 15:23 | 41.64295 | -2.42368 | 31787 ft | 390 kts | 208° |
| 2026-05-01 15:24 | 41.61862 | -2.43947 | 31344 ft | 387 kts | 208° |
| 2026-05-01 15:24 | 41.59453 | -2.45508 | 30906 ft | 384 kts | 208° |
| 2026-05-01 15:24 | 41.57052 | -2.47062 | 30480 ft | 382 kts | 208° |
| 2026-05-01 15:24 | 41.54664 | -2.48608 | 30033 ft | 380 kts | 208° |
| 2026-05-01 15:25 | 41.52295 | -2.50140 | 29536 ft | 377 kts | 208° |
| 2026-05-01 15:25 | 41.49936 | -2.51663 | 29106 ft | 374 kts | 208° |
| 2026-05-01 15:25 | 41.47591 | -2.53175 | 28581 ft | 374 kts | 208° |
| 2026-05-01 15:25 | 41.45263 | -2.54676 | 28189 ft | 370 kts | 208° |
| 2026-05-01 15:26 | 41.42956 | -2.56162 | 27803 ft | 366 kts | 208° |
| 2026-05-01 15:26 | 41.40670 | -2.57631 | 27506 ft | 360 kts | 207° |
| 2026-05-01 15:26 | 41.38399 | -2.59085 | 27540 ft | 364 kts | 207° |
| 2026-05-01 15:26 | 41.36146 | -2.60528 | 27497 ft | 365 kts | 207° |
| 2026-05-01 15:27 | 41.33829 | -2.62012 | 27492 ft | 365 kts | 207° |
| 2026-05-01 15:27 | 41.31568 | -2.63459 | 27490 ft | 365 kts | 208° |
| 2026-05-01 15:27 | 41.29310 | -2.64990 | 27154 ft | 364 kts | 216° |
| 2026-05-01 15:28 | 41.26339 | -2.70343 | 25676 ft | 372 kts | 254° |
| 2026-05-01 15:28 | 41.25633 | -2.73683 | 24974 ft | 377 kts | 248° |
| 2026-05-01 15:28 | 41.24412 | -2.76791 | 24351 ft | 381 kts | 239° |
| 2026-05-01 15:29 | 41.21576 | -2.82650 | 23600 ft | 374 kts | 236° |
| 2026-05-01 15:29 | 41.20097 | -2.85487 | 23102 ft | 372 kts | 235° |
| 2026-05-01 15:29 | 41.17568 | -2.90214 | 21743 ft | 384 kts | 235° |
| 2026-05-01 15:30 | 41.14393 | -2.96054 | 20115 ft | 394 kts | 234° |
| 2026-05-01 15:31 | 41.08008 | -3.07713 | 16954 ft | 383 kts | 234° |
| 2026-05-01 15:31 | 41.04928 | -3.13320 | 15417 ft | 370 kts | 234° |
| 2026-05-01 15:32 | 41.01943 | -3.18745 | 14005 ft | 358 kts | 233° |
| 2026-05-01 15:32 | 40.99049 | -3.23995 | 12515 ft | 348 kts | 233° |
| 2026-05-01 15:33 | 40.94853 | -3.31590 | 10448 ft | 333 kts | 233° |
| 2026-05-01 15:34 | 40.91606 | -3.39410 | 8444 ft | 327 kts | 267° |